sensor_id;sensor_type;location;lat;lon;timestamp;temperature;humidity
57242;DHT22;43095;53.302;5.786;2023-10-19T00:00:49;7.40;96.30
57242;DHT22;43095;53.302;5.786;2023-10-19T00:03:20;7.40;96.10
57242;DHT22;43095;53.302;5.786;2023-10-19T00:05:50;7.40;96.60
57242;DHT22;43095;53.302;5.786;2023-10-19T00:08:17;7.40;97.60
57242;DHT22;43095;53.302;5.786;2023-10-19T00:10:50;7.40;97.40
57242;DHT22;43095;53.302;5.786;2023-10-19T00:13:38;7.40;97.20
57242;DHT22;43095;53.302;5.786;2023-10-19T00:16:07;7.40;97.00
57242;DHT22;43095;53.302;5.786;2023-10-19T00:18:56;7.40;97.20
57242;DHT22;43095;53.302;5.786;2023-10-19T00:21:26;7.40;97.50
57242;DHT22;43095;53.302;5.786;2023-10-19T00:23:58;7.40;97.10
57242;DHT22;43095;53.302;5.786;2023-10-19T00:26:31;7.40;97.50
57242;DHT22;43095;53.302;5.786;2023-10-19T00:28:59;7.40;97.80
57242;DHT22;43095;53.302;5.786;2023-10-19T00:31:35;7.40;97.50
57242;DHT22;43095;53.302;5.786;2023-10-19T00:34:07;7.40;98.00
57242;DHT22;43095;53.302;5.786;2023-10-19T00:36:34;7.40;98.20
57242;DHT22;43095;53.302;5.786;2023-10-19T00:39:05;7.40;98.20
57242;DHT22;43095;53.302;5.786;2023-10-19T00:41:40;7.40;98.70
57242;DHT22;43095;53.302;5.786;2023-10-19T00:44:09;7.30;98.70
57242;DHT22;43095;53.302;5.786;2023-10-19T00:46:42;7.40;98.60
57242;DHT22;43095;53.302;5.786;2023-10-19T00:49:12;7.30;99.00
57242;DHT22;43095;53.302;5.786;2023-10-19T00:51:45;7.30;99.30
57242;DHT22;43095;53.302;5.786;2023-10-19T00:54:26;7.20;99.30
57242;DHT22;43095;53.302;5.786;2023-10-19T00:57:00;7.30;98.80
57242;DHT22;43095;53.302;5.786;2023-10-19T00:59:35;7.20;99.60
57242;DHT22;43095;53.302;5.786;2023-10-19T01:02:10;7.20;99.70
57242;DHT22;43095;53.302;5.786;2023-10-19T01:05:03;7.30;99.60
57242;DHT22;43095;53.302;5.786;2023-10-19T01:07:36;7.20;99.90
57242;DHT22;43095;53.302;5.786;2023-10-19T01:10:14;7.20;99.90
57242;DHT22;43095;53.302;5.786;2023-10-19T01:12:51;7.20;99.90
57242;DHT22;43095;53.302;5.786;2023-10-19T01:15:21;7.20;99.90
57242;DHT22;43095;53.302;5.786;2023-10-19T01:17:58;7.20;99.90
57242;DHT22;43095;53.302;5.786;2023-10-19T01:20:29;7.20;99.90
57242;DHT22;43095;53.302;5.786;2023-10-19T01:23:00;7.30;99.90
57242;DHT22;43095;53.302;5.786;2023-10-19T01:28:17;7.30;99.80
57242;DHT22;43095;53.302;5.786;2023-10-19T01:30:45;7.30;99.90
57242;DHT22;43095;53.302;5.786;2023-10-19T01:33:19;7.30;99.60
57242;DHT22;43095;53.302;5.786;2023-10-19T01:35:47;7.30;99.80
57242;DHT22;43095;53.302;5.786;2023-10-19T01:38:33;7.40;99.90
57242;DHT22;43095;53.302;5.786;2023-10-19T01:41:02;7.40;99.90
57242;DHT22;43095;53.302;5.786;2023-10-19T01:43:46;7.30;99.90
57242;DHT22;43095;53.302;5.786;2023-10-19T01:46:17;7.40;99.90
57242;DHT22;43095;53.302;5.786;2023-10-19T01:48:59;7.40;99.90
57242;DHT22;43095;53.302;5.786;2023-10-19T01:51:30;7.40;99.90
57242;DHT22;43095;53.302;5.786;2023-10-19T01:54:08;7.40;99.90
57242;DHT22;43095;53.302;5.786;2023-10-19T01:56:35;7.40;99.90
57242;DHT22;43095;53.302;5.786;2023-10-19T01:59:04;7.40;99.90
57242;DHT22;43095;53.302;5.786;2023-10-19T02:01:35;7.40;99.90
57242;DHT22;43095;53.302;5.786;2023-10-19T02:04:05;7.40;99.90
57242;DHT22;43095;53.302;5.786;2023-10-19T02:06:34;7.40;99.90
57242;DHT22;43095;53.302;5.786;2023-10-19T02:09:08;7.40;99.90
57242;DHT22;43095;53.302;5.786;2023-10-19T02:11:54;7.40;99.90
57242;DHT22;43095;53.302;5.786;2023-10-19T02:14:24;7.40;99.90
57242;DHT22;43095;53.302;5.786;2023-10-19T02:16:54;7.40;99.90
57242;DHT22;43095;53.302;5.786;2023-10-19T02:19:27;7.40;99.90
57242;DHT22;43095;53.302;5.786;2023-10-19T02:22:01;7.40;99.90
57242;DHT22;43095;53.302;5.786;2023-10-19T02:24:35;7.40;99.90
57242;DHT22;43095;53.302;5.786;2023-10-19T02:27:03;7.50;99.90
57242;DHT22;43095;53.302;5.786;2023-10-19T02:29:33;7.50;99.90
57242;DHT22;43095;53.302;5.786;2023-10-19T02:32:03;7.50;99.90
57242;DHT22;43095;53.302;5.786;2023-10-19T02:34:31;7.50;99.90
57242;DHT22;43095;53.302;5.786;2023-10-19T02:36:58;7.50;99.90
57242;DHT22;43095;53.302;5.786;2023-10-19T02:39:26;7.50;99.90
57242;DHT22;43095;53.302;5.786;2023-10-19T02:41:55;7.50;99.90
57242;DHT22;43095;53.302;5.786;2023-10-19T02:44:23;7.50;99.90
57242;DHT22;43095;53.302;5.786;2023-10-19T02:46:54;7.50;99.90
57242;DHT22;43095;53.302;5.786;2023-10-19T02:49:28;7.50;99.90
57242;DHT22;43095;53.302;5.786;2023-10-19T02:51:57;7.50;99.90
57242;DHT22;43095;53.302;5.786;2023-10-19T02:54:30;7.50;99.90
57242;DHT22;43095;53.302;5.786;2023-10-19T02:57:02;7.50;99.90
57242;DHT22;43095;53.302;5.786;2023-10-19T02:59:34;7.50;99.90
57242;DHT22;43095;53.302;5.786;2023-10-19T03:02:02;7.50;99.90
57242;DHT22;43095;53.302;5.786;2023-10-19T03:04:41;7.50;99.90
57242;DHT22;43095;53.302;5.786;2023-10-19T03:07:09;7.50;99.90
57242;DHT22;43095;53.302;5.786;2023-10-19T03:09:39;7.50;99.90
57242;DHT22;43095;53.302;5.786;2023-10-19T03:12:09;7.60;99.90
57242;DHT22;43095;53.302;5.786;2023-10-19T03:14:37;7.60;99.90
57242;DHT22;43095;53.302;5.786;2023-10-19T03:17:05;7.60;99.90
57242;DHT22;43095;53.302;5.786;2023-10-19T03:19:35;7.60;99.90
57242;DHT22;43095;53.302;5.786;2023-10-19T03:22:05;7.60;99.90
57242;DHT22;43095;53.302;5.786;2023-10-19T03:24:33;7.60;99.90
57242;DHT22;43095;53.302;5.786;2023-10-19T03:27:09;7.60;99.90
57242;DHT22;43095;53.302;5.786;2023-10-19T03:29:57;7.60;99.90
57242;DHT22;43095;53.302;5.786;2023-10-19T03:32:29;7.60;99.90
57242;DHT22;43095;53.302;5.786;2023-10-19T03:34:59;7.60;99.90
57242;DHT22;43095;53.302;5.786;2023-10-19T03:37:29;7.60;99.90
57242;DHT22;43095;53.302;5.786;2023-10-19T03:39:58;7.60;99.90
57242;DHT22;43095;53.302;5.786;2023-10-19T03:42:25;7.60;99.90
57242;DHT22;43095;53.302;5.786;2023-10-19T03:44:53;7.70;99.90
57242;DHT22;43095;53.302;5.786;2023-10-19T03:47:21;7.70;99.90
57242;DHT22;43095;53.302;5.786;2023-10-19T03:49:53;7.70;99.90
57242;DHT22;43095;53.302;5.786;2023-10-19T03:52:20;7.70;99.90
57242;DHT22;43095;53.302;5.786;2023-10-19T03:54:48;7.70;99.90
57242;DHT22;43095;53.302;5.786;2023-10-19T03:57:17;7.80;99.90
57242;DHT22;43095;53.302;5.786;2023-10-19T03:59:56;7.80;99.90
57242;DHT22;43095;53.302;5.786;2023-10-19T04:02:28;7.80;99.90
57242;DHT22;43095;53.302;5.786;2023-10-19T04:04:56;7.80;99.90
57242;DHT22;43095;53.302;5.786;2023-10-19T04:07:24;7.80;99.90
57242;DHT22;43095;53.302;5.786;2023-10-19T04:09:56;7.80;99.90
57242;DHT22;43095;53.302;5.786;2023-10-19T04:12:38;7.80;99.90
57242;DHT22;43095;53.302;5.786;2023-10-19T04:15:09;7.80;99.90
57242;DHT22;43095;53.302;5.786;2023-10-19T04:17:44;7.80;99.90
57242;DHT22;43095;53.302;5.786;2023-10-19T04:20:15;7.80;99.90
57242;DHT22;43095;53.302;5.786;2023-10-19T04:22:46;7.80;99.90
57242;DHT22;43095;53.302;5.786;2023-10-19T04:25:14;7.80;99.90
57242;DHT22;43095;53.302;5.786;2023-10-19T04:27:53;7.80;99.90
57242;DHT22;43095;53.302;5.786;2023-10-19T04:30:20;7.80;99.90
57242;DHT22;43095;53.302;5.786;2023-10-19T04:32:53;7.80;99.90
57242;DHT22;43095;53.302;5.786;2023-10-19T04:35:22;7.80;99.90
57242;DHT22;43095;53.302;5.786;2023-10-19T04:37:53;7.80;99.90
57242;DHT22;43095;53.302;5.786;2023-10-19T04:40:21;7.80;99.90
57242;DHT22;43095;53.302;5.786;2023-10-19T04:42:59;7.80;99.90
57242;DHT22;43095;53.302;5.786;2023-10-19T04:45:31;7.80;99.90
57242;DHT22;43095;53.302;5.786;2023-10-19T04:47:58;7.80;99.90
57242;DHT22;43095;53.302;5.786;2023-10-19T04:50:25;7.80;99.90
57242;DHT22;43095;53.302;5.786;2023-10-19T04:52:53;7.80;99.90
57242;DHT22;43095;53.302;5.786;2023-10-19T04:55:20;7.90;99.90
57242;DHT22;43095;53.302;5.786;2023-10-19T04:57:47;7.90;99.90
57242;DHT22;43095;53.302;5.786;2023-10-19T05:00:14;7.90;99.90
57242;DHT22;43095;53.302;5.786;2023-10-19T05:02:43;7.90;99.90
57242;DHT22;43095;53.302;5.786;2023-10-19T05:05:11;7.90;99.90
57242;DHT22;43095;53.302;5.786;2023-10-19T05:07:40;7.90;99.90
57242;DHT22;43095;53.302;5.786;2023-10-19T05:10:07;7.90;99.90
57242;DHT22;43095;53.302;5.786;2023-10-19T05:12:35;7.90;99.90
57242;DHT22;43095;53.302;5.786;2023-10-19T05:15:05;8.00;99.90
57242;DHT22;43095;53.302;5.786;2023-10-19T05:17:32;8.00;99.90
57242;DHT22;43095;53.302;5.786;2023-10-19T05:20:00;8.00;99.90
57242;DHT22;43095;53.302;5.786;2023-10-19T05:22:27;8.00;99.90
57242;DHT22;43095;53.302;5.786;2023-10-19T05:24:56;8.00;99.90
57242;DHT22;43095;53.302;5.786;2023-10-19T05:27:24;8.00;99.90
57242;DHT22;43095;53.302;5.786;2023-10-19T05:29:51;8.00;99.90
57242;DHT22;43095;53.302;5.786;2023-10-19T05:32:19;8.00;99.90
57242;DHT22;43095;53.302;5.786;2023-10-19T05:34:46;8.00;99.90
57242;DHT22;43095;53.302;5.786;2023-10-19T05:37:14;8.00;99.90
57242;DHT22;43095;53.302;5.786;2023-10-19T05:39:43;8.00;99.90
57242;DHT22;43095;53.302;5.786;2023-10-19T05:42:11;8.00;99.90
57242;DHT22;43095;53.302;5.786;2023-10-19T05:44:38;8.00;99.90
57242;DHT22;43095;53.302;5.786;2023-10-19T05:47:05;8.00;99.90
57242;DHT22;43095;53.302;5.786;2023-10-19T05:49:33;8.00;99.90
57242;DHT22;43095;53.302;5.786;2023-10-19T05:52:00;8.00;99.90
57242;DHT22;43095;53.302;5.786;2023-10-19T05:54:30;8.00;99.90
57242;DHT22;43095;53.302;5.786;2023-10-19T05:56:57;8.10;99.90
57242;DHT22;43095;53.302;5.786;2023-10-19T05:59:25;8.10;99.90
57242;DHT22;43095;53.302;5.786;2023-10-19T06:01:53;8.10;99.90
57242;DHT22;43095;53.302;5.786;2023-10-19T06:04:20;8.10;99.90
57242;DHT22;43095;53.302;5.786;2023-10-19T06:06:48;8.10;99.90
57242;DHT22;43095;53.302;5.786;2023-10-19T06:09:17;8.10;99.90
57242;DHT22;43095;53.302;5.786;2023-10-19T06:11:46;8.10;99.90
57242;DHT22;43095;53.302;5.786;2023-10-19T06:14:15;8.10;99.90
57242;DHT22;43095;53.302;5.786;2023-10-19T06:16:42;8.10;99.90
57242;DHT22;43095;53.302;5.786;2023-10-19T06:19:10;8.10;99.90
57242;DHT22;43095;53.302;5.786;2023-10-19T06:21:37;8.10;99.90
57242;DHT22;43095;53.302;5.786;2023-10-19T06:24:05;8.10;99.90
57242;DHT22;43095;53.302;5.786;2023-10-19T06:26:32;8.10;99.90
57242;DHT22;43095;53.302;5.786;2023-10-19T06:28:59;8.10;99.90
57242;DHT22;43095;53.302;5.786;2023-10-19T06:31:27;8.20;99.90
57242;DHT22;43095;53.302;5.786;2023-10-19T06:33:56;8.20;99.90
57242;DHT22;43095;53.302;5.786;2023-10-19T06:36:24;8.20;99.90
57242;DHT22;43095;53.302;5.786;2023-10-19T06:38:51;8.20;99.90
57242;DHT22;43095;53.302;5.786;2023-10-19T06:41:21;8.20;99.90
57242;DHT22;43095;53.302;5.786;2023-10-19T06:43:49;8.20;99.90
57242;DHT22;43095;53.302;5.786;2023-10-19T06:46:16;8.20;99.90
57242;DHT22;43095;53.302;5.786;2023-10-19T06:48:44;8.20;99.90
57242;DHT22;43095;53.302;5.786;2023-10-19T06:51:11;8.20;99.90
57242;DHT22;43095;53.302;5.786;2023-10-19T06:53:38;8.20;99.90
57242;DHT22;43095;53.302;5.786;2023-10-19T06:56:06;8.20;99.90
57242;DHT22;43095;53.302;5.786;2023-10-19T06:58:33;8.20;99.90
57242;DHT22;43095;53.302;5.786;2023-10-19T07:01:01;8.30;99.90
57242;DHT22;43095;53.302;5.786;2023-10-19T07:03:35;8.30;99.90
57242;DHT22;43095;53.302;5.786;2023-10-19T07:06:03;8.30;99.90
57242;DHT22;43095;53.302;5.786;2023-10-19T07:08:39;8.30;99.90
57242;DHT22;43095;53.302;5.786;2023-10-19T07:11:08;8.20;99.90
57242;DHT22;43095;53.302;5.786;2023-10-19T07:13:36;8.30;99.90
57242;DHT22;43095;53.302;5.786;2023-10-19T07:16:03;8.30;99.90
57242;DHT22;43095;53.302;5.786;2023-10-19T07:18:31;8.30;99.90
57242;DHT22;43095;53.302;5.786;2023-10-19T07:20:58;8.30;99.90
57242;DHT22;43095;53.302;5.786;2023-10-19T07:23:32;8.30;99.90
57242;DHT22;43095;53.302;5.786;2023-10-19T07:25:59;8.30;99.90
57242;DHT22;43095;53.302;5.786;2023-10-19T07:28:27;8.30;99.90
57242;DHT22;43095;53.302;5.786;2023-10-19T07:30:55;8.30;99.90
57242;DHT22;43095;53.302;5.786;2023-10-19T07:33:23;8.30;99.90
57242;DHT22;43095;53.302;5.786;2023-10-19T07:35:51;8.30;99.90
57242;DHT22;43095;53.302;5.786;2023-10-19T07:38:22;8.30;99.90
57242;DHT22;43095;53.302;5.786;2023-10-19T07:40:50;8.40;99.90
57242;DHT22;43095;53.302;5.786;2023-10-19T07:43:21;8.30;99.90
57242;DHT22;43095;53.302;5.786;2023-10-19T07:45:49;8.30;99.90
57242;DHT22;43095;53.302;5.786;2023-10-19T07:48:17;8.30;99.90
57242;DHT22;43095;53.302;5.786;2023-10-19T07:50:44;8.40;99.90
57242;DHT22;43095;53.302;5.786;2023-10-19T07:53:12;8.40;99.90
57242;DHT22;43095;53.302;5.786;2023-10-19T07:55:39;8.40;99.90
57242;DHT22;43095;53.302;5.786;2023-10-19T07:58:07;8.40;99.90
57242;DHT22;43095;53.302;5.786;2023-10-19T08:00:34;8.40;99.90
57242;DHT22;43095;53.302;5.786;2023-10-19T08:03:03;8.40;99.90
57242;DHT22;43095;53.302;5.786;2023-10-19T08:05:32;8.40;99.90
57242;DHT22;43095;53.302;5.786;2023-10-19T08:08:01;8.50;99.90
57242;DHT22;43095;53.302;5.786;2023-10-19T08:10:31;8.50;99.90
57242;DHT22;43095;53.302;5.786;2023-10-19T08:12:58;8.50;99.90
57242;DHT22;43095;53.302;5.786;2023-10-19T08:15:27;8.50;99.90
57242;DHT22;43095;53.302;5.786;2023-10-19T08:17:57;8.50;99.90
57242;DHT22;43095;53.302;5.786;2023-10-19T08:20:25;8.50;99.90
57242;DHT22;43095;53.302;5.786;2023-10-19T08:23:00;8.50;99.90
57242;DHT22;43095;53.302;5.786;2023-10-19T08:25:31;8.60;99.90
57242;DHT22;43095;53.302;5.786;2023-10-19T08:28:19;8.60;99.90
57242;DHT22;43095;53.302;5.786;2023-10-19T08:30:47;8.60;99.90
57242;DHT22;43095;53.302;5.786;2023-10-19T08:33:24;8.60;99.90
57242;DHT22;43095;53.302;5.786;2023-10-19T08:36:01;8.60;99.90
57242;DHT22;43095;53.302;5.786;2023-10-19T08:38:28;8.60;99.90
57242;DHT22;43095;53.302;5.786;2023-10-19T08:40:56;8.70;99.90
57242;DHT22;43095;53.302;5.786;2023-10-19T08:43:24;8.80;99.90
57242;DHT22;43095;53.302;5.786;2023-10-19T08:45:53;8.80;99.90
57242;DHT22;43095;53.302;5.786;2023-10-19T08:48:22;8.80;99.90
57242;DHT22;43095;53.302;5.786;2023-10-19T08:50:50;8.80;99.90
57242;DHT22;43095;53.302;5.786;2023-10-19T08:53:20;8.80;99.90
57242;DHT22;43095;53.302;5.786;2023-10-19T08:55:48;8.80;99.90
57242;DHT22;43095;53.302;5.786;2023-10-19T08:58:17;8.80;99.90
57242;DHT22;43095;53.302;5.786;2023-10-19T09:00:48;8.80;99.90
57242;DHT22;43095;53.302;5.786;2023-10-19T09:03:21;8.80;99.90
57242;DHT22;43095;53.302;5.786;2023-10-19T09:05:51;8.90;99.90
57242;DHT22;43095;53.302;5.786;2023-10-19T09:08:18;8.90;99.90
57242;DHT22;43095;53.302;5.786;2023-10-19T09:10:50;8.90;99.90
57242;DHT22;43095;53.302;5.786;2023-10-19T09:13:22;8.90;99.90
57242;DHT22;43095;53.302;5.786;2023-10-19T09:15:51;9.00;99.90
57242;DHT22;43095;53.302;5.786;2023-10-19T09:18:25;9.00;99.90
57242;DHT22;43095;53.302;5.786;2023-10-19T09:20:56;9.00;99.90
57242;DHT22;43095;53.302;5.786;2023-10-19T09:23:32;9.00;99.90
57242;DHT22;43095;53.302;5.786;2023-10-19T09:26:01;9.00;99.90
57242;DHT22;43095;53.302;5.786;2023-10-19T09:28:36;9.00;99.90
57242;DHT22;43095;53.302;5.786;2023-10-19T09:31:05;9.00;99.90
57242;DHT22;43095;53.302;5.786;2023-10-19T09:33:40;9.00;99.90
57242;DHT22;43095;53.302;5.786;2023-10-19T09:36:09;9.10;99.90
57242;DHT22;43095;53.302;5.786;2023-10-19T09:38:47;9.10;99.90
57242;DHT22;43095;53.302;5.786;2023-10-19T09:41:18;9.20;99.90
57242;DHT22;43095;53.302;5.786;2023-10-19T09:43:49;9.20;99.90
57242;DHT22;43095;53.302;5.786;2023-10-19T09:46:22;9.20;99.90
57242;DHT22;43095;53.302;5.786;2023-10-19T09:48:50;9.20;99.90
57242;DHT22;43095;53.302;5.786;2023-10-19T09:51:19;9.20;99.90
57242;DHT22;43095;53.302;5.786;2023-10-19T09:53:53;9.20;99.90
57242;DHT22;43095;53.302;5.786;2023-10-19T09:56:45;9.20;99.90
57242;DHT22;43095;53.302;5.786;2023-10-19T09:59:56;9.30;99.90
57242;DHT22;43095;53.302;5.786;2023-10-19T10:02:39;9.30;99.90
57242;DHT22;43095;53.302;5.786;2023-10-19T10:10:44;9.40;99.90
57242;DHT22;43095;53.302;5.786;2023-10-19T10:15:53;9.40;99.90
57242;DHT22;43095;53.302;5.786;2023-10-19T10:18:26;9.50;99.90
57242;DHT22;43095;53.302;5.786;2023-10-19T10:21:12;9.50;99.90
57242;DHT22;43095;53.302;5.786;2023-10-19T10:23:43;9.50;99.90
57242;DHT22;43095;53.302;5.786;2023-10-19T10:26:12;9.50;99.90
57242;DHT22;43095;53.302;5.786;2023-10-19T10:28:41;9.50;99.90
57242;DHT22;43095;53.302;5.786;2023-10-19T10:33:53;9.60;99.90
57242;DHT22;43095;53.302;5.786;2023-10-19T10:36:26;9.60;99.90
57242;DHT22;43095;53.302;5.786;2023-10-19T10:39:02;9.60;99.90
57242;DHT22;43095;53.302;5.786;2023-10-19T10:41:32;9.60;99.90
57242;DHT22;43095;53.302;5.786;2023-10-19T10:43:59;9.60;99.90
57242;DHT22;43095;53.302;5.786;2023-10-19T10:46:28;9.60;99.90
57242;DHT22;43095;53.302;5.786;2023-10-19T10:48:56;9.70;99.90
57242;DHT22;43095;53.302;5.786;2023-10-19T10:51:25;9.70;99.90
57242;DHT22;43095;53.302;5.786;2023-10-19T10:53:56;9.70;99.90
57242;DHT22;43095;53.302;5.786;2023-10-19T10:56:24;9.70;99.90
57242;DHT22;43095;53.302;5.786;2023-10-19T10:58:51;9.70;99.90
57242;DHT22;43095;53.302;5.786;2023-10-19T11:01:32;9.70;99.90
57242;DHT22;43095;53.302;5.786;2023-10-19T11:04:10;9.80;99.90
57242;DHT22;43095;53.302;5.786;2023-10-19T11:06:53;9.80;99.90
57242;DHT22;43095;53.302;5.786;2023-10-19T11:09:24;9.80;99.90
57242;DHT22;43095;53.302;5.786;2023-10-19T11:11:51;9.80;99.90
57242;DHT22;43095;53.302;5.786;2023-10-19T11:14:21;9.80;99.90
57242;DHT22;43095;53.302;5.786;2023-10-19T11:16:52;9.80;99.90
57242;DHT22;43095;53.302;5.786;2023-10-19T11:19:20;9.80;99.90
57242;DHT22;43095;53.302;5.786;2023-10-19T11:21:54;9.90;99.90
57242;DHT22;43095;53.302;5.786;2023-10-19T11:24:26;9.90;99.90
57242;DHT22;43095;53.302;5.786;2023-10-19T11:26:57;9.90;99.90
57242;DHT22;43095;53.302;5.786;2023-10-19T11:29:24;10.00;99.90
57242;DHT22;43095;53.302;5.786;2023-10-19T11:31:57;10.00;99.90
57242;DHT22;43095;53.302;5.786;2023-10-19T11:34:27;10.00;99.90
57242;DHT22;43095;53.302;5.786;2023-10-19T11:36:56;10.00;99.90
57242;DHT22;43095;53.302;5.786;2023-10-19T11:39:26;10.00;99.90
57242;DHT22;43095;53.302;5.786;2023-10-19T11:41:54;10.00;99.90
57242;DHT22;43095;53.302;5.786;2023-10-19T11:44:21;10.00;99.90
57242;DHT22;43095;53.302;5.786;2023-10-19T11:46:49;10.00;99.90
57242;DHT22;43095;53.302;5.786;2023-10-19T11:49:16;10.00;99.90
57242;DHT22;43095;53.302;5.786;2023-10-19T11:51:43;10.00;99.90
57242;DHT22;43095;53.302;5.786;2023-10-19T11:54:10;10.00;99.90
57242;DHT22;43095;53.302;5.786;2023-10-19T11:56:39;10.00;99.90
57242;DHT22;43095;53.302;5.786;2023-10-19T11:59:06;10.00;99.90
57242;DHT22;43095;53.302;5.786;2023-10-19T12:01:34;10.00;99.90
57242;DHT22;43095;53.302;5.786;2023-10-19T12:04:01;10.00;99.90
57242;DHT22;43095;53.302;5.786;2023-10-19T12:06:29;10.00;99.90
57242;DHT22;43095;53.302;5.786;2023-10-19T12:08:56;10.00;99.90
57242;DHT22;43095;53.302;5.786;2023-10-19T12:11:26;10.00;99.90
57242;DHT22;43095;53.302;5.786;2023-10-19T12:13:53;10.00;99.90
57242;DHT22;43095;53.302;5.786;2023-10-19T12:16:21;10.00;99.90
57242;DHT22;43095;53.302;5.786;2023-10-19T12:18:53;10.00;99.90
57242;DHT22;43095;53.302;5.786;2023-10-19T12:21:21;10.00;99.90
57242;DHT22;43095;53.302;5.786;2023-10-19T12:23:54;10.00;99.90
57242;DHT22;43095;53.302;5.786;2023-10-19T12:26:24;9.90;99.90
57242;DHT22;43095;53.302;5.786;2023-10-19T12:28:51;9.90;99.90
57242;DHT22;43095;53.302;5.786;2023-10-19T12:31:19;9.90;99.90
57242;DHT22;43095;53.302;5.786;2023-10-19T12:33:46;9.80;99.90
57242;DHT22;43095;53.302;5.786;2023-10-19T12:36:14;9.80;99.90
57242;DHT22;43095;53.302;5.786;2023-10-19T12:38:59;9.80;99.90
57242;DHT22;43095;53.302;5.786;2023-10-19T12:41:28;9.70;99.90
57242;DHT22;43095;53.302;5.786;2023-10-19T12:43:56;9.60;99.90
57242;DHT22;43095;53.302;5.786;2023-10-19T12:46:29;9.50;99.90
57242;DHT22;43095;53.302;5.786;2023-10-19T12:48:57;9.50;99.90
57242;DHT22;43095;53.302;5.786;2023-10-19T12:51:25;9.50;99.90
57242;DHT22;43095;53.302;5.786;2023-10-19T12:53:53;9.40;99.90
57242;DHT22;43095;53.302;5.786;2023-10-19T12:56:21;9.40;99.90
57242;DHT22;43095;53.302;5.786;2023-10-19T12:58:51;9.40;99.90
57242;DHT22;43095;53.302;5.786;2023-10-19T13:01:19;9.40;99.90
57242;DHT22;43095;53.302;5.786;2023-10-19T13:03:47;9.40;99.90
57242;DHT22;43095;53.302;5.786;2023-10-19T13:06:17;9.30;99.90
57242;DHT22;43095;53.302;5.786;2023-10-19T13:08:44;9.20;99.90
57242;DHT22;43095;53.302;5.786;2023-10-19T13:11:12;9.20;99.90
57242;DHT22;43095;53.302;5.786;2023-10-19T13:13:45;9.20;99.90
57242;DHT22;43095;53.302;5.786;2023-10-19T13:16:15;9.20;99.90
57242;DHT22;43095;53.302;5.786;2023-10-19T13:18:43;9.10;99.90
57242;DHT22;43095;53.302;5.786;2023-10-19T13:21:11;9.00;99.90
57242;DHT22;43095;53.302;5.786;2023-10-19T13:23:44;9.10;99.90
57242;DHT22;43095;53.302;5.786;2023-10-19T13:26:12;9.00;99.90
57242;DHT22;43095;53.302;5.786;2023-10-19T13:28:46;9.00;99.90
57242;DHT22;43095;53.302;5.786;2023-10-19T13:31:14;9.00;99.90
57242;DHT22;43095;53.302;5.786;2023-10-19T13:33:43;9.00;99.90
57242;DHT22;43095;53.302;5.786;2023-10-19T13:36:12;9.00;99.90
57242;DHT22;43095;53.302;5.786;2023-10-19T13:38:40;9.00;99.90
57242;DHT22;43095;53.302;5.786;2023-10-19T13:41:08;9.00;99.90
57242;DHT22;43095;53.302;5.786;2023-10-19T13:43:41;9.00;99.90
57242;DHT22;43095;53.302;5.786;2023-10-19T13:46:11;9.00;99.90
57242;DHT22;43095;53.302;5.786;2023-10-19T13:48:39;8.90;99.90
57242;DHT22;43095;53.302;5.786;2023-10-19T13:51:07;8.90;99.90
57242;DHT22;43095;53.302;5.786;2023-10-19T13:53:41;8.90;99.90
57242;DHT22;43095;53.302;5.786;2023-10-19T13:56:10;8.90;99.90
57242;DHT22;43095;53.302;5.786;2023-10-19T13:58:38;8.90;99.90
57242;DHT22;43095;53.302;5.786;2023-10-19T14:01:10;8.90;99.90
57242;DHT22;43095;53.302;5.786;2023-10-19T14:03:40;8.90;99.90
57242;DHT22;43095;53.302;5.786;2023-10-19T14:06:14;8.80;99.90
57242;DHT22;43095;53.302;5.786;2023-10-19T14:08:42;8.80;99.90
57242;DHT22;43095;53.302;5.786;2023-10-19T14:11:09;8.80;99.90
57242;DHT22;43095;53.302;5.786;2023-10-19T14:13:39;8.80;99.90
57242;DHT22;43095;53.302;5.786;2023-10-19T14:16:40;8.70;99.90
57242;DHT22;43095;53.302;5.786;2023-10-19T14:19:10;8.70;99.90
57242;DHT22;43095;53.302;5.786;2023-10-19T14:21:37;8.60;99.90
57242;DHT22;43095;53.302;5.786;2023-10-19T14:24:07;8.60;99.90
57242;DHT22;43095;53.302;5.786;2023-10-19T14:26:35;8.60;99.90
57242;DHT22;43095;53.302;5.786;2023-10-19T14:29:02;8.60;99.90
57242;DHT22;43095;53.302;5.786;2023-10-19T14:31:29;8.60;99.90
57242;DHT22;43095;53.302;5.786;2023-10-19T14:33:57;8.60;99.90
57242;DHT22;43095;53.302;5.786;2023-10-19T14:36:25;8.60;99.90
57242;DHT22;43095;53.302;5.786;2023-10-19T14:39:05;8.60;99.90
57242;DHT22;43095;53.302;5.786;2023-10-19T14:41:32;8.60;99.90
57242;DHT22;43095;53.302;5.786;2023-10-19T14:43:59;8.60;99.90
57242;DHT22;43095;53.302;5.786;2023-10-19T14:46:30;8.60;99.90
57242;DHT22;43095;53.302;5.786;2023-10-19T14:48:59;8.50;99.90
57242;DHT22;43095;53.302;5.786;2023-10-19T14:51:27;8.50;99.90
57242;DHT22;43095;53.302;5.786;2023-10-19T14:53:55;8.50;99.90
57242;DHT22;43095;53.302;5.786;2023-10-19T14:56:22;8.50;99.90
57242;DHT22;43095;53.302;5.786;2023-10-19T14:58:49;8.50;99.90
57242;DHT22;43095;53.302;5.786;2023-10-19T15:01:23;8.50;99.90
57242;DHT22;43095;53.302;5.786;2023-10-19T15:03:52;8.50;99.90
57242;DHT22;43095;53.302;5.786;2023-10-19T15:06:20;8.50;99.90
57242;DHT22;43095;53.302;5.786;2023-10-19T15:08:47;8.50;99.90
57242;DHT22;43095;53.302;5.786;2023-10-19T15:11:18;8.50;99.90
57242;DHT22;43095;53.302;5.786;2023-10-19T15:13:49;8.50;99.90
57242;DHT22;43095;53.302;5.786;2023-10-19T15:16:26;8.50;99.90
57242;DHT22;43095;53.302;5.786;2023-10-19T15:18:59;8.50;99.90
57242;DHT22;43095;53.302;5.786;2023-10-19T15:21:42;8.50;99.90
57242;DHT22;43095;53.302;5.786;2023-10-19T15:24:40;8.50;99.90
57242;DHT22;43095;53.302;5.786;2023-10-19T15:27:30;8.50;99.90
57242;DHT22;43095;53.302;5.786;2023-10-19T15:30:13;8.50;99.90
57242;DHT22;43095;53.302;5.786;2023-10-19T15:32:56;8.50;99.90
57242;DHT22;43095;53.302;5.786;2023-10-19T15:35:31;8.50;99.90
57242;DHT22;43095;53.302;5.786;2023-10-19T15:38:00;8.50;99.90
57242;DHT22;43095;53.302;5.786;2023-10-19T15:40:28;8.50;99.90
57242;DHT22;43095;53.302;5.786;2023-10-19T15:42:55;8.50;99.90
57242;DHT22;43095;53.302;5.786;2023-10-19T15:45:26;8.50;99.90
57242;DHT22;43095;53.302;5.786;2023-10-19T15:47:56;8.50;99.90
57242;DHT22;43095;53.302;5.786;2023-10-19T15:50:25;8.60;99.90
57242;DHT22;43095;53.302;5.786;2023-10-19T15:53:01;8.60;99.90
57242;DHT22;43095;53.302;5.786;2023-10-19T15:55:31;8.60;99.90
57242;DHT22;43095;53.302;5.786;2023-10-19T15:57:58;8.60;99.90
57242;DHT22;43095;53.302;5.786;2023-10-19T16:00:25;8.60;99.90
57242;DHT22;43095;53.302;5.786;2023-10-19T16:02:52;8.60;99.90
57242;DHT22;43095;53.302;5.786;2023-10-19T16:05:20;8.60;99.90
57242;DHT22;43095;53.302;5.786;2023-10-19T16:07:47;8.60;99.90
57242;DHT22;43095;53.302;5.786;2023-10-19T16:10:15;8.60;99.90
57242;DHT22;43095;53.302;5.786;2023-10-19T16:12:43;8.60;99.90
57242;DHT22;43095;53.302;5.786;2023-10-19T16:15:11;8.60;99.90
57242;DHT22;43095;53.302;5.786;2023-10-19T16:17:41;8.60;99.90
57242;DHT22;43095;53.302;5.786;2023-10-19T16:20:11;8.60;99.90